createdAt,value
2017-02-11T00:00:20.575Z,1017.88
2017-02-11T00:01:31.984Z,1017.85
2017-02-11T00:02:43.388Z,1017.83
2017-02-11T00:03:54.801Z,1017.8
2017-02-11T00:05:06.402Z,1017.82
2017-02-11T00:06:17.805Z,1017.83
2017-02-11T00:07:29.213Z,1017.75
2017-02-11T00:08:40.618Z,1017.73
2017-02-11T00:09:52.223Z,1017.71
2017-02-11T00:11:03.871Z,1017.73
2017-02-11T00:12:15.273Z,1017.76
2017-02-11T00:13:26.680Z,1017.75
2017-02-11T00:14:38.077Z,1017.77
2017-02-11T00:15:49.688Z,1017.8
2017-02-11T00:17:01.103Z,1017.8
2017-02-11T00:18:12.506Z,1017.76
2017-02-11T00:19:24.115Z,1017.73
2017-02-11T00:20:35.765Z,1017.72
2017-02-11T00:21:47.173Z,1017.7
2017-02-11T00:22:58.573Z,1017.77
2017-02-11T00:24:09.978Z,1017.75
2017-02-11T00:25:21.388Z,1017.78
2017-02-11T00:26:32.785Z,1017.81
2017-02-11T00:27:44.185Z,1017.84
2017-02-11T00:28:55.590Z,1017.8
2017-02-11T00:30:06.996Z,1017.84
2017-02-11T00:31:18.458Z,1017.81
2017-02-11T00:32:30.060Z,1017.82
2017-02-11T00:33:41.468Z,1017.84
2017-02-11T00:34:52.875Z,1017.9
2017-02-11T00:36:04.283Z,1017.86
2017-02-11T00:37:15.693Z,1017.8
2017-02-11T00:38:27.093Z,1017.85
2017-02-11T00:39:38.506Z,1017.83
2017-02-11T00:40:49.902Z,1017.85
2017-02-11T00:42:01.345Z,1017.83
2017-02-11T00:43:12.738Z,1017.81
2017-02-11T00:44:24.145Z,1017.89
2017-02-11T00:45:35.559Z,1017.89
2017-02-11T00:46:46.965Z,1017.91
2017-02-11T00:47:58.622Z,1017.91
2017-02-11T00:49:10.048Z,1017.92
2017-02-11T00:50:21.664Z,1017.94
2017-02-11T00:51:33.064Z,1017.94
2017-02-11T00:52:44.468Z,1017.9
2017-02-11T00:53:55.863Z,1017.92
2017-02-11T00:55:07.268Z,1017.93
2017-02-11T00:56:18.666Z,1017.93
2017-02-11T00:57:30.066Z,1017.96
2017-02-11T00:58:41.670Z,1017.91
2017-02-11T00:59:53.109Z,1017.91
2017-02-11T01:01:04.553Z,1017.91
2017-02-11T01:02:16.158Z,1017.93
2017-02-11T01:03:27.563Z,1017.87
2017-02-11T01:04:39.190Z,1017.87
2017-02-11T01:05:50.621Z,1017.89
2017-02-11T01:07:02.018Z,1017.91
2017-02-11T01:08:13.471Z,1017.88
2017-02-11T01:09:25.134Z,1017.92
2017-02-11T01:10:36.737Z,1017.87
2017-02-11T01:11:48.136Z,1017.88
2017-02-11T01:12:59.571Z,1017.88
2017-02-11T01:14:10.969Z,1017.88
2017-02-11T01:15:22.571Z,1017.83
2017-02-11T01:16:33.970Z,1017.85
2017-02-11T01:17:45.583Z,1017.84
2017-02-11T01:18:56.981Z,1017.85
2017-02-11T01:20:08.437Z,1017.82
2017-02-11T01:21:19.831Z,1017.76
2017-02-11T01:22:31.232Z,1017.73
2017-02-11T01:23:42.640Z,1017.71
2017-02-11T01:24:54.238Z,1017.71
2017-02-11T01:26:05.629Z,1017.68
2017-02-11T01:27:17.030Z,1017.72
2017-02-11T01:28:28.429Z,1017.72
2017-02-11T01:29:40.037Z,1017.71
2017-02-11T01:30:51.488Z,1017.68
2017-02-11T01:32:02.891Z,1017.67
2017-02-11T01:33:14.505Z,1017.67
2017-02-11T01:34:26.319Z,1017.66
2017-02-11T01:35:37.726Z,1017.71
2017-02-11T01:36:49.125Z,1017.73
2017-02-11T01:38:00.536Z,1017.74
2017-02-11T01:39:11.938Z,1017.76
2017-02-11T01:40:23.336Z,1017.75
2017-02-11T01:41:34.742Z,1017.79
2017-02-11T01:42:46.199Z,1017.76
2017-02-11T01:43:57.594Z,1017.7
2017-02-11T01:45:08.984Z,1017.71
2017-02-11T01:46:20.376Z,1017.67
2017-02-11T01:47:31.773Z,1017.66
2017-02-11T01:48:43.171Z,1017.65
2017-02-11T01:49:54.569Z,1017.64
2017-02-11T01:51:05.972Z,1017.64
2017-02-11T01:52:17.420Z,1017.64
2017-02-11T01:53:28.825Z,1017.59
2017-02-11T01:54:40.228Z,1017.61
2017-02-11T01:55:51.630Z,1017.61
2017-02-11T01:57:03.038Z,1017.59
2017-02-11T01:58:14.440Z,1017.59
2017-02-11T01:59:25.849Z,1017.62
2017-02-11T02:00:37.249Z,1017.57
2017-02-11T02:01:48.651Z,1017.51
2017-02-11T02:03:00.304Z,1017.52
2017-02-11T02:04:11.703Z,1017.47
2017-02-11T02:05:23.297Z,1017.4
2017-02-11T02:06:34.911Z,1017.44
2017-02-11T02:07:46.337Z,1017.4
2017-02-11T02:08:57.781Z,1017.41
2017-02-11T02:10:09.175Z,1017.47
2017-02-11T02:11:20.581Z,1017.42
2017-02-11T02:12:31.978Z,1017.42
2017-02-11T02:13:43.442Z,1017.36
2017-02-11T02:14:55.245Z,1017.37
2017-02-11T02:16:06.638Z,1017.35
2017-02-11T02:17:18.038Z,1017.32
2017-02-11T02:18:29.635Z,1017.42
2017-02-11T02:19:41.043Z,1017.47
2017-02-11T02:20:52.449Z,1017.48
2017-02-11T02:22:03.851Z,1017.51
2017-02-11T02:23:15.248Z,1017.53
2017-02-11T02:24:26.659Z,1017.54
2017-02-11T02:25:38.063Z,1017.58
2017-02-11T02:26:49.466Z,1017.58
2017-02-11T02:28:00.872Z,1017.59
2017-02-11T02:29:12.260Z,1017.55
2017-02-11T02:30:23.715Z,1017.55
2017-02-11T02:31:35.136Z,1017.51
2017-02-11T02:32:46.734Z,1017.53
2017-02-11T02:33:58.135Z,1017.49
2017-02-11T02:35:09.534Z,1017.52
2017-02-11T02:36:20.961Z,1017.48
2017-02-11T02:37:32.365Z,1017.48
2017-02-11T02:38:43.772Z,1017.47
2017-02-11T02:39:55.221Z,1017.44
2017-02-11T02:41:06.624Z,1017.41
2017-02-11T02:42:18.022Z,1017.43
2017-02-11T02:43:29.424Z,1017.44
2017-02-11T02:44:41.024Z,1017.43
2017-02-11T02:45:52.632Z,1017.34
2017-02-11T02:47:04.037Z,1017.35
2017-02-11T02:48:15.434Z,1017.32
2017-02-11T02:49:26.847Z,1017.38
2017-02-11T02:50:38.301Z,1017.33
2017-02-11T02:51:49.708Z,1017.3
2017-02-11T02:53:01.116Z,1017.26
2017-02-11T02:54:12.521Z,1017.28
2017-02-11T02:55:24.122Z,1017.28
2017-02-11T02:56:35.528Z,1017.31
2017-02-11T02:57:46.924Z,1017.34
2017-02-11T02:58:58.337Z,1017.33
2017-02-11T03:00:09.732Z,1017.3
2017-02-11T03:01:21.181Z,1017.31
2017-02-11T03:02:32.580Z,1017.26
2017-02-11T03:03:43.989Z,1017.24
2017-02-11T03:04:55.397Z,1017.27
2017-02-11T03:06:07.209Z,1017.28
2017-02-11T03:07:18.633Z,1017.3
2017-02-11T03:08:30.038Z,1017.29
2017-02-11T03:09:41.436Z,1017.33
2017-02-11T03:10:52.840Z,1017.37
2017-02-11T03:12:04.455Z,1017.39
2017-02-11T03:13:15.863Z,1017.39
2017-02-11T03:14:27.469Z,1017.37
2017-02-11T03:15:38.871Z,1017.42
2017-02-11T03:16:50.276Z,1017.43
2017-02-11T03:18:01.875Z,1017.39
2017-02-11T03:19:13.331Z,1017.38
2017-02-11T03:20:24.730Z,1017.38
2017-02-11T03:21:36.136Z,1017.44
2017-02-11T03:22:47.536Z,1017.48
2017-02-11T03:23:58.941Z,1017.47
2017-02-11T03:25:10.339Z,1017.47
2017-02-11T03:26:21.744Z,1017.44
2017-02-11T03:27:33.153Z,1017.47
2017-02-11T03:28:44.813Z,1017.45
2017-02-11T03:29:56.223Z,1017.45
2017-02-11T03:31:07.637Z,1017.4
2017-02-11T03:32:19.041Z,1017.43
2017-02-11T03:33:30.445Z,1017.39
2017-02-11T03:34:41.897Z,1017.4
2017-02-11T03:35:53.495Z,1017.38
2017-02-11T03:37:04.902Z,1017.35
2017-02-11T03:38:16.297Z,1017.36
2017-02-11T03:39:27.754Z,1017.33
2017-02-11T03:40:39.152Z,1017.35
2017-02-11T03:41:50.557Z,1017.32
2017-02-11T03:43:02.164Z,1017.33
2017-02-11T03:44:13.567Z,1017.3
2017-02-11T03:45:25.168Z,1017.33
2017-02-11T03:46:36.572Z,1017.28
2017-02-11T03:47:47.974Z,1017.29
2017-02-11T03:48:59.368Z,1017.29
2017-02-11T03:50:10.826Z,1017.27
2017-02-11T03:51:22.435Z,1017.22
2017-02-11T03:52:33.844Z,1017.19
2017-02-11T03:53:45.254Z,1017.21
2017-02-11T03:54:56.652Z,1017.16
2017-02-11T03:56:08.100Z,1017.18
2017-02-11T03:57:19.502Z,1017.15
2017-02-11T03:58:30.907Z,1017.13
2017-02-11T03:59:42.308Z,1017.11
2017-02-11T04:00:53.717Z,1017.13
2017-02-11T04:02:05.323Z,1017.12
2017-02-11T04:03:16.721Z,1017.12
2017-02-11T04:04:28.124Z,1017.18
2017-02-11T04:05:39.521Z,1017.12
2017-02-11T04:06:50.928Z,1017.15
2017-02-11T04:08:02.385Z,1017.19
2017-02-11T04:09:13.779Z,1017.2
2017-02-11T04:10:25.188Z,1017.24
2017-02-11T04:11:36.599Z,1017.26
2017-02-11T04:12:48.005Z,1017.23
2017-02-11T04:13:59.405Z,1017.22
2017-02-11T04:15:10.816Z,1017.25
2017-02-11T04:16:22.219Z,1017.21
2017-02-11T04:17:33.663Z,1017.24
2017-02-11T04:18:45.064Z,1017.19
2017-02-11T04:19:56.469Z,1017.15
2017-02-11T04:21:08.063Z,1017.17
2017-02-11T04:22:19.866Z,1017.18
2017-02-11T04:23:31.271Z,1017.18
2017-02-11T04:24:42.667Z,1017.24
2017-02-11T04:25:54.072Z,1017.31
2017-02-11T04:27:05.470Z,1017.32
2017-02-11T04:28:17.321Z,1017.37
2017-02-11T04:29:28.722Z,1017.4
2017-02-11T04:30:40.119Z,1017.43
2017-02-11T04:31:51.524Z,1017.4
2017-02-11T04:33:02.952Z,1017.4
2017-02-11T04:34:14.556Z,1017.42
2017-02-11T04:35:25.993Z,1017.39
2017-02-11T04:36:37.591Z,1017.36
2017-02-11T04:37:49.196Z,1017.4
2017-02-11T04:39:00.650Z,1017.42
2017-02-11T04:40:12.060Z,1017.38
2017-02-11T04:41:23.658Z,1017.39
2017-02-11T04:42:35.045Z,1017.4
2017-02-11T04:43:46.441Z,1017.4
2017-02-11T04:44:57.848Z,1017.39
2017-02-11T04:46:09.251Z,1017.4
2017-02-11T04:47:20.655Z,1017.38
2017-02-11T04:48:32.257Z,1017.37
2017-02-11T04:49:43.658Z,1017.34
2017-02-11T04:50:55.108Z,1017.35
2017-02-11T04:52:06.518Z,1017.35
2017-02-11T04:53:17.931Z,1017.37
2017-02-11T04:54:29.346Z,1017.38
2017-02-11T04:55:40.749Z,1017.35
2017-02-11T04:56:52.161Z,1017.31
2017-02-11T04:58:03.558Z,1017.35
2017-02-11T04:59:15.170Z,1017.32
2017-02-11T05:00:26.620Z,1017.32
2017-02-11T05:01:38.014Z,1017.26
2017-02-11T05:02:49.418Z,1017.26
2017-02-11T05:04:00.815Z,1017.24
2017-02-11T05:05:12.217Z,1017.25
2017-02-11T05:06:23.611Z,1017.18
2017-02-11T05:07:35.008Z,1017.19
2017-02-11T05:08:46.409Z,1017.2
2017-02-11T05:09:57.810Z,1017.19
2017-02-11T05:11:09.261Z,1017.24
2017-02-11T05:12:20.668Z,1017.21
2017-02-11T05:13:32.265Z,1017.15
2017-02-11T05:14:43.674Z,1017.11
2017-02-11T05:15:55.074Z,1017.13
2017-02-11T05:17:06.679Z,1017.11
2017-02-11T05:18:18.069Z,1017.16
2017-02-11T05:19:29.674Z,1017.17
2017-02-11T05:20:41.078Z,1017.1
2017-02-11T05:21:52.736Z,1017.17
2017-02-11T05:23:04.139Z,1017.15
2017-02-11T05:24:15.743Z,1017.16
2017-02-11T05:25:27.150Z,1017.12
2017-02-11T05:26:38.547Z,1017.15
2017-02-11T05:27:50.200Z,1017.16
2017-02-11T05:29:01.798Z,1017.15
2017-02-11T05:30:13.196Z,1017.18
2017-02-11T05:31:24.610Z,1017.17
2017-02-11T05:32:36.013Z,1017.16
2017-02-11T05:33:47.411Z,1017.16
2017-02-11T05:34:58.816Z,1017.14
2017-02-11T05:36:10.210Z,1017.15
2017-02-11T05:37:21.615Z,1017.13
2017-02-11T05:38:33.017Z,1017.09
2017-02-11T05:39:44.476Z,1017.1
2017-02-11T05:40:56.078Z,1017.1
2017-02-11T05:42:07.885Z,1017.04
2017-02-11T05:43:19.282Z,1017.03
2017-02-11T05:44:30.677Z,1017.03
2017-02-11T05:45:42.285Z,1017.02
2017-02-11T05:46:53.686Z,1016.99
2017-02-11T05:48:05.097Z,1016.97
2017-02-11T05:49:16.549Z,1016.98
2017-02-11T05:50:27.956Z,1016.95
2017-02-11T05:51:39.362Z,1017.02
2017-02-11T05:52:50.772Z,1017.02
2017-02-11T05:54:02.169Z,1016.97
2017-02-11T05:55:13.567Z,1016.98
2017-02-11T05:56:24.962Z,1016.98
2017-02-11T05:57:36.367Z,1016.96
2017-02-11T05:58:47.778Z,1016.89
2017-02-11T05:59:59.220Z,1016.93
2017-02-11T06:01:11.015Z,1016.89
2017-02-11T06:02:22.423Z,1016.88
2017-02-11T06:03:33.827Z,1016.9
2017-02-11T06:04:45.453Z,1016.87
2017-02-11T06:05:56.902Z,1016.84
2017-02-11T06:07:08.303Z,1016.83
2017-02-11T06:08:19.707Z,1016.83
2017-02-11T06:09:31.114Z,1016.85
2017-02-11T06:10:42.775Z,1016.84
2017-02-11T06:11:54.180Z,1016.89
2017-02-11T06:13:05.587Z,1016.84
2017-02-11T06:14:16.979Z,1016.89
2017-02-11T06:15:28.375Z,1016.86
2017-02-11T06:16:39.805Z,1016.86
2017-02-11T06:17:51.219Z,1016.82
2017-02-11T06:19:02.619Z,1016.86
2017-02-11T06:20:14.016Z,1016.85
2017-02-11T06:21:25.413Z,1016.88
2017-02-11T06:22:36.852Z,1016.84
2017-02-11T06:23:48.459Z,1016.82
2017-02-11T06:24:59.860Z,1016.85
2017-02-11T06:26:11.257Z,1016.83
2017-02-11T06:27:22.663Z,1016.92
2017-02-11T06:28:34.266Z,1016.92
2017-02-11T06:29:45.676Z,1017.02
2017-02-11T06:30:57.085Z,1017.05
2017-02-11T06:32:08.740Z,1017.11
2017-02-11T06:33:20.147Z,1017.14
2017-02-11T06:34:31.748Z,1017.12
2017-02-11T06:35:43.155Z,1017.09
2017-02-11T06:36:54.553Z,1017.09
2017-02-11T06:38:05.955Z,1017.09
2017-02-11T06:39:17.354Z,1017.05
2017-02-11T06:40:28.754Z,1017.08
2017-02-11T06:41:40.154Z,1017.03
2017-02-11T06:42:51.808Z,1016.99
2017-02-11T06:44:03.418Z,1017.03
2017-02-11T06:45:14.812Z,1017.03
2017-02-11T06:46:26.213Z,1017.03
2017-02-11T06:47:37.619Z,1017.05
2017-02-11T06:48:49.222Z,1017.01
2017-02-11T06:50:00.617Z,1016.99
2017-02-11T06:51:12.020Z,1017.01
2017-02-11T06:52:23.817Z,1017.05
2017-02-11T06:53:35.472Z,1017.08
2017-02-11T06:54:46.873Z,1017.02
2017-02-11T06:55:58.273Z,1017.04
2017-02-11T06:57:09.671Z,1017.07
2017-02-11T06:58:21.097Z,1017.1
2017-02-11T06:59:32.508Z,1017.06
2017-02-11T07:00:43.917Z,1017.08
2017-02-11T07:01:55.323Z,1017.14
2017-02-11T07:03:06.726Z,1017.14
2017-02-11T07:04:18.122Z,1017.11
2017-02-11T07:05:29.572Z,1017.06
2017-02-11T07:06:40.980Z,1017.04
2017-02-11T07:07:52.390Z,1017.06
2017-02-11T07:09:03.788Z,1017.03
2017-02-11T07:10:15.190Z,1017.04
2017-02-11T07:11:26.593Z,1017.06
2017-02-11T07:12:37.984Z,1017.05
2017-02-11T07:13:49.379Z,1017
2017-02-11T07:15:01.062Z,1017.03
2017-02-11T07:16:12.457Z,1017.02
2017-02-11T07:17:23.853Z,1017.07
2017-02-11T07:18:35.458Z,1017.08
2017-02-11T07:19:46.853Z,1017.12
2017-02-11T07:20:58.264Z,1017.16
2017-02-11T07:22:09.670Z,1017.15
2017-02-11T07:23:21.071Z,1017.14
2017-02-11T07:24:32.670Z,1017.09
2017-02-11T07:25:44.321Z,1017.12
2017-02-11T07:26:55.741Z,1017.07
2017-02-11T07:28:07.141Z,1017.02
2017-02-11T07:29:18.580Z,1016.98
2017-02-11T07:30:29.987Z,1016.97
2017-02-11T07:31:41.403Z,1016.96
2017-02-11T07:32:52.796Z,1016.94
2017-02-11T07:34:04.204Z,1016.95
2017-02-11T07:35:15.805Z,1016.96
2017-02-11T07:36:27.248Z,1016.96
2017-02-11T07:37:38.638Z,1016.96
2017-02-11T07:38:50.038Z,1016.97
2017-02-11T07:40:01.457Z,1017.02
2017-02-11T07:41:12.857Z,1017.03
2017-02-11T07:42:24.339Z,1017.04
2017-02-11T07:43:35.735Z,1017.04
2017-02-11T07:44:47.143Z,1017.06
2017-02-11T07:45:58.549Z,1017.05
2017-02-11T07:47:10.151Z,1017.1
2017-02-11T07:48:21.547Z,1017.17
2017-02-11T07:49:32.946Z,1017.18
2017-02-11T07:50:44.343Z,1017.23
2017-02-11T07:51:55.742Z,1017.2
2017-02-11T07:53:07.195Z,1017.16
2017-02-11T07:54:18.600Z,1017.13
2017-02-11T07:55:30.003Z,1017.18
2017-02-11T07:56:41.403Z,1017.26
2017-02-11T07:57:52.800Z,1017.26
2017-02-11T07:59:04.199Z,1017.3
2017-02-11T08:00:15.606Z,1017.3
2017-02-11T08:01:27.005Z,1017.31
2017-02-11T08:02:38.663Z,1017.26
2017-02-11T08:03:50.066Z,1017.24
2017-02-11T08:05:01.468Z,1017.23
2017-02-11T08:06:12.867Z,1017.26
2017-02-11T08:07:24.267Z,1017.22
2017-02-11T08:08:35.666Z,1017.27
2017-02-11T08:09:47.078Z,1017.35
2017-02-11T08:10:58.688Z,1017.4
2017-02-11T08:12:10.285Z,1017.43
2017-02-11T08:13:21.741Z,1017.39
2017-02-11T08:14:33.148Z,1017.4
2017-02-11T08:15:44.551Z,1017.38
2017-02-11T08:16:55.983Z,1017.44
2017-02-11T08:18:07.384Z,1017.45
2017-02-11T08:19:18.786Z,1017.42
2017-02-11T08:20:30.185Z,1017.43
2017-02-11T08:21:41.589Z,1017.39
2017-02-11T08:22:52.990Z,1017.4
2017-02-11T08:24:04.453Z,1017.42
2017-02-11T08:25:15.866Z,1017.44
2017-02-11T08:26:27.303Z,1017.44
2017-02-11T08:27:38.705Z,1017.39
2017-02-11T08:28:50.109Z,1017.38
2017-02-11T08:30:01.560Z,1017.41
2017-02-11T08:31:13.166Z,1017.4
2017-02-11T08:32:24.568Z,1017.36
2017-02-11T08:33:35.959Z,1017.46
2017-02-11T08:34:47.353Z,1017.46
2017-02-11T08:35:58.817Z,1017.5
2017-02-11T08:37:10.218Z,1017.48
2017-02-11T08:38:21.634Z,1017.5
2017-02-11T08:39:33.049Z,1017.5
2017-02-11T08:40:44.659Z,1017.46
2017-02-11T08:41:56.067Z,1017.45
2017-02-11T08:43:07.468Z,1017.42
2017-02-11T08:44:19.073Z,1017.42
2017-02-11T08:45:30.521Z,1017.42
2017-02-11T08:46:41.922Z,1017.39
2017-02-11T08:47:53.326Z,1017.35
2017-02-11T08:49:04.934Z,1017.32
2017-02-11T08:50:16.338Z,1017.34
2017-02-11T08:51:27.995Z,1017.33
2017-02-11T08:52:39.407Z,1017.3
2017-02-11T08:53:50.801Z,1017.32
2017-02-11T08:55:02.203Z,1017.31
2017-02-11T08:56:13.652Z,1017.25
2017-02-11T08:57:25.254Z,1017.24
2017-02-11T08:58:36.658Z,1017.23
2017-02-11T08:59:48.055Z,1017.26
2017-02-11T09:00:59.460Z,1017.23
2017-02-11T09:02:10.865Z,1017.19
2017-02-11T09:03:22.273Z,1017.23
2017-02-11T09:04:33.695Z,1017.23
2017-02-11T09:05:45.297Z,1017.23
2017-02-11T09:06:56.750Z,1017.22
2017-02-11T09:08:08.151Z,1017.26
2017-02-11T09:09:19.547Z,1017.2
2017-02-11T09:10:30.955Z,1017.26
2017-02-11T09:11:42.356Z,1017.26
2017-02-11T09:12:53.813Z,1017.26
2017-02-11T09:14:05.219Z,1017.23
2017-02-11T09:15:16.620Z,1017.25
2017-02-11T09:16:28.017Z,1017.26
2017-02-11T09:17:39.426Z,1017.25
2017-02-11T09:18:51.030Z,1017.26
2017-02-11T09:20:02.449Z,1017.25
2017-02-11T09:21:13.848Z,1017.24
2017-02-11T09:22:25.257Z,1017.25
2017-02-11T09:23:36.658Z,1017.21
2017-02-11T09:24:48.107Z,1017.27
2017-02-11T09:25:59.507Z,1017.24
2017-02-11T09:27:10.925Z,1017.26
2017-02-11T09:28:22.339Z,1017.24
2017-02-11T09:29:33.748Z,1017.22
2017-02-11T09:30:45.146Z,1017.27
2017-02-11T09:31:56.545Z,1017.24
2017-02-11T09:33:07.939Z,1017.3
2017-02-11T09:34:19.404Z,1017.28
2017-02-11T09:35:30.797Z,1017.31
2017-02-11T09:36:42.193Z,1017.29
2017-02-11T09:37:53.594Z,1017.29
2017-02-11T09:39:05.198Z,1017.26
2017-02-11T09:40:16.593Z,1017.27
2017-02-11T09:41:27.989Z,1017.33
2017-02-11T09:42:39.388Z,1017.29
2017-02-11T09:43:50.991Z,1017.32
2017-02-11T09:45:02.450Z,1017.33
2017-02-11T09:46:13.853Z,1017.29
2017-02-11T09:47:25.244Z,1017.29
2017-02-11T09:48:36.653Z,1017.29
2017-02-11T09:49:48.056Z,1017.34
2017-02-11T09:50:59.464Z,1017.33
2017-02-11T09:52:10.860Z,1017.36
2017-02-11T09:53:22.271Z,1017.37
2017-02-11T09:54:33.886Z,1017.38
2017-02-11T09:55:45.337Z,1017.28
2017-02-11T09:56:56.733Z,1017.27
2017-02-11T09:58:08.134Z,1017.24
2017-02-11T09:59:54.289Z,1017.21
2017-02-11T10:01:05.580Z,1017.23
2017-02-11T10:02:16.990Z,1017.23
2017-02-11T10:03:28.602Z,1017.22
2017-02-11T10:04:40.012Z,1017.21
2017-02-11T10:05:51.421Z,1017.2
2017-02-11T10:07:02.822Z,1017.19
2017-02-11T10:08:14.222Z,1017.21
2017-02-11T10:09:25.625Z,1017.22
2017-02-11T10:10:37.026Z,1017.2
2017-02-11T10:11:48.436Z,1017.26
2017-02-11T10:12:59.903Z,1017.23
2017-02-11T10:14:11.298Z,1017.18
2017-02-11T10:15:22.703Z,1017.18
2017-02-11T10:16:34.110Z,1017.17
2017-02-11T10:17:45.511Z,1017.16
2017-02-11T10:18:56.912Z,1017.11
2017-02-11T10:20:08.314Z,1017.13
2017-02-11T10:21:19.717Z,1017.09
2017-02-11T10:22:31.361Z,1017.1
2017-02-11T10:23:42.766Z,1017.16
2017-02-11T10:24:54.168Z,1017.14
2017-02-11T10:26:05.568Z,1017.24
2017-02-11T10:27:16.970Z,1017.17
2017-02-11T10:28:28.372Z,1017.17
2017-02-11T10:29:39.775Z,1017.17
2017-02-11T10:30:51.186Z,1017.17
2017-02-11T10:32:02.799Z,1017.13
2017-02-11T10:33:14.452Z,1017.12
2017-02-11T10:34:26.053Z,1017.19
2017-02-11T10:35:37.455Z,1017.17
2017-02-11T10:36:48.856Z,1017.17
2017-02-11T10:38:00.468Z,1017.16
2017-02-11T10:39:11.871Z,1017.15
2017-02-11T10:40:23.279Z,1017.09
2017-02-11T10:41:34.683Z,1017.08
2017-02-11T10:42:46.297Z,1017.08
2017-02-11T10:43:57.955Z,1017.11
2017-02-11T10:45:09.354Z,1017.08
2017-02-11T10:46:20.948Z,1017.09
2017-02-11T10:47:32.360Z,1017.11
2017-02-11T10:48:43.753Z,1017.12
2017-02-11T10:49:55.358Z,1017.11
2017-02-11T10:51:06.765Z,1017.09
2017-02-11T10:52:18.175Z,1017.03
2017-02-11T10:53:29.782Z,1017
2017-02-11T10:54:41.191Z,1016.95
2017-02-11T10:55:52.638Z,1016.94
2017-02-11T10:57:04.047Z,1016.97
2017-02-11T10:58:15.463Z,1016.95
2017-02-11T10:59:26.876Z,1016.92
2017-02-11T11:00:38.285Z,1016.92
2017-02-11T11:01:49.695Z,1016.92
2017-02-11T11:03:01.302Z,1016.93
2017-02-11T11:04:12.706Z,1016.95
2017-02-11T11:05:24.171Z,1016.93
2017-02-11T11:06:35.576Z,1016.88
2017-02-11T11:07:47.189Z,1016.89
2017-02-11T11:08:58.592Z,1016.9
2017-02-11T11:10:10.000Z,1016.92
2017-02-11T11:11:21.398Z,1016.92
2017-02-11T11:12:33.211Z,1016.92
2017-02-11T11:13:44.622Z,1016.95
2017-02-11T11:14:56.226Z,1016.98
2017-02-11T11:16:07.676Z,1017
2017-02-11T11:17:19.081Z,1016.98
2017-02-11T11:18:30.691Z,1017
2017-02-11T11:19:42.302Z,1016.94
2017-02-11T11:20:53.705Z,1016.95
2017-02-11T11:22:05.116Z,1016.98
2017-02-11T11:23:16.513Z,1016.95
2017-02-11T11:24:27.924Z,1016.94
2017-02-11T11:25:39.332Z,1016.95
2017-02-11T11:26:50.784Z,1016.94
2017-02-11T11:28:02.184Z,1016.98
2017-02-11T11:29:13.585Z,1016.94
2017-02-11T11:30:24.991Z,1016.93
2017-02-11T11:31:36.398Z,1016.95
2017-02-11T11:32:47.797Z,1016.89
2017-02-11T11:33:59.209Z,1016.89
2017-02-11T11:35:10.606Z,1016.96
2017-02-11T11:36:22.013Z,1016.94
2017-02-11T11:37:33.605Z,1016.95
2017-02-11T11:38:45.103Z,1016.93
2017-02-11T11:39:56.511Z,1016.91
2017-02-11T11:41:07.913Z,1016.92
2017-02-11T11:42:19.320Z,1016.91
2017-02-11T11:43:30.948Z,1016.92
2017-02-11T11:44:42.806Z,1016.93
2017-02-11T11:45:54.220Z,1016.94
2017-02-11T11:47:05.618Z,1016.88
2017-02-11T11:48:17.026Z,1016.93
2017-02-11T11:49:28.483Z,1016.89
2017-02-11T11:50:39.892Z,1016.94
2017-02-11T11:51:51.293Z,1016.96
2017-02-11T11:53:02.703Z,1016.89
2017-02-11T11:54:14.158Z,1016.88
2017-02-11T11:55:25.559Z,1016.86
2017-02-11T11:56:37.162Z,1016.87
2017-02-11T11:57:48.604Z,1016.88
2017-02-11T11:59:00.012Z,1016.87
2017-02-11T12:00:11.407Z,1016.87
2017-02-11T12:01:22.815Z,1016.92
2017-02-11T12:02:34.219Z,1016.87
2017-02-11T12:03:45.626Z,1016.88
2017-02-11T12:04:57.083Z,1016.84
2017-02-11T12:06:08.498Z,1016.83
2017-02-11T12:07:20.299Z,1016.81
2017-02-11T12:08:31.704Z,1016.86
2017-02-11T12:09:43.313Z,1016.88
2017-02-11T12:10:54.722Z,1016.84
2017-02-11T12:12:06.122Z,1016.82
2017-02-11T12:13:17.541Z,1016.85
2017-02-11T12:14:29.147Z,1016.87
2017-02-11T12:15:40.602Z,1016.88
2017-02-11T12:16:52.003Z,1016.89
2017-02-11T12:18:03.419Z,1016.88
2017-02-11T12:19:14.834Z,1016.84
2017-02-11T12:20:26.241Z,1016.87
2017-02-11T12:21:37.642Z,1016.83
2017-02-11T12:22:49.249Z,1016.86
2017-02-11T12:24:00.657Z,1016.86
2017-02-11T12:25:12.058Z,1016.88
2017-02-11T12:26:23.452Z,1016.87
2017-02-11T12:27:34.859Z,1016.89
2017-02-11T12:28:46.269Z,1016.87
2017-02-11T12:29:57.670Z,1016.87
2017-02-11T12:31:09.277Z,1016.88
2017-02-11T12:32:20.723Z,1016.87
2017-02-11T12:33:32.135Z,1016.85
2017-02-11T12:34:43.542Z,1016.92
2017-02-11T12:35:54.935Z,1016.9
2017-02-11T12:37:06.584Z,1016.92
2017-02-11T12:38:18.008Z,1016.89
2017-02-11T12:39:29.409Z,1016.89
2017-02-11T12:40:40.816Z,1016.91
2017-02-11T12:41:52.423Z,1016.92
2017-02-11T12:43:03.883Z,1016.9
2017-02-11T12:44:15.487Z,1016.89
2017-02-11T12:45:26.879Z,1016.91
2017-02-11T12:46:38.291Z,1016.9
2017-02-11T12:47:49.702Z,1016.84
2017-02-11T12:49:01.124Z,1016.89
2017-02-11T12:50:12.538Z,1016.83
2017-02-11T12:51:23.957Z,1016.84
2017-02-11T12:52:35.776Z,1016.84
2017-02-11T12:53:47.230Z,1016.82
2017-02-11T12:54:58.634Z,1016.82
2017-02-11T12:56:10.047Z,1016.83
2017-02-11T12:57:21.454Z,1016.83
2017-02-11T12:58:32.860Z,1016.75
2017-02-11T12:59:44.270Z,1016.74
2017-02-11T13:00:55.676Z,1016.75
2017-02-11T13:02:07.084Z,1016.77
2017-02-11T13:03:18.483Z,1016.74
2017-02-11T13:04:29.925Z,1016.69
2017-02-11T13:05:41.731Z,1016.7
2017-02-11T13:06:53.145Z,1016.68
2017-02-11T13:08:04.558Z,1016.69
2017-02-11T13:09:15.965Z,1016.63
2017-02-11T13:10:27.423Z,1016.55
2017-02-11T13:11:38.831Z,1016.52
2017-02-11T13:12:50.438Z,1016.5
2017-02-11T13:14:02.060Z,1016.49
2017-02-11T13:15:13.473Z,1016.53
2017-02-11T13:16:25.085Z,1016.52
2017-02-11T13:17:36.494Z,1016.47
2017-02-11T13:18:48.105Z,1016.48
2017-02-11T13:19:59.954Z,1016.42
2017-02-11T13:21:11.359Z,1016.41
2017-02-11T13:22:22.961Z,1016.44
2017-02-11T13:23:34.370Z,1016.42
2017-02-11T13:24:45.778Z,1016.44
2017-02-11T13:25:57.239Z,1016.44
2017-02-11T13:27:08.639Z,1016.38
2017-02-11T13:28:20.055Z,1016.41
2017-02-11T13:29:31.467Z,1016.37
2017-02-11T13:30:42.921Z,1016.37
2017-02-11T13:31:54.531Z,1016.27
2017-02-11T13:33:05.938Z,1016.23
2017-02-11T13:34:17.553Z,1016.2
2017-02-11T13:35:29.157Z,1016.19
2017-02-11T13:36:40.565Z,1016.21
2017-02-11T13:37:51.970Z,1016.12
2017-02-11T13:39:03.408Z,1016.1
2017-02-11T13:40:14.830Z,1016.09
2017-02-11T13:41:26.288Z,1016.13
2017-02-11T13:42:37.690Z,1016.07
2017-02-11T13:43:49.097Z,1016.06
2017-02-11T13:45:00.707Z,1016.05
2017-02-11T13:46:12.116Z,1016.09
2017-02-11T13:47:23.523Z,1016.06
2017-02-11T13:48:34.934Z,1016.11
2017-02-11T13:49:46.544Z,1016.12
2017-02-11T13:50:57.959Z,1016.14
2017-02-11T13:52:09.562Z,1016.11
2017-02-11T13:53:21.167Z,1016.09
2017-02-11T13:54:32.573Z,1016.08
2017-02-11T13:55:43.977Z,1016.02
2017-02-11T13:56:55.587Z,1016.02
2017-02-11T13:58:06.987Z,1015.97
2017-02-11T13:59:18.433Z,1015.96
2017-02-11T14:00:29.830Z,1016.05
2017-02-11T14:01:41.234Z,1016.03
2017-02-11T14:02:52.636Z,1016.03
2017-02-11T14:04:04.054Z,1016.01
2017-02-11T14:05:15.467Z,1016.05
2017-02-11T14:06:26.875Z,1015.98
2017-02-11T14:07:38.279Z,1016
2017-02-11T14:08:49.737Z,1015.95
2017-02-11T14:10:01.150Z,1015.94
2017-02-11T14:11:12.763Z,1015.94
2017-02-11T14:12:24.374Z,1015.9
2017-02-11T14:13:35.784Z,1015.93
2017-02-11T14:14:47.212Z,1015.91
2017-02-11T14:15:58.615Z,1015.97
2017-02-11T14:17:10.009Z,1016.01
2017-02-11T14:18:21.616Z,1015.96
2017-02-11T14:19:33.063Z,1015.94
2017-02-11T14:20:44.704Z,1016.01
2017-02-11T14:21:56.116Z,1016.04
2017-02-11T14:23:07.523Z,1016.03
2017-02-11T14:24:19.138Z,1016.07
2017-02-11T14:25:30.546Z,1016.13
2017-02-11T14:26:41.947Z,1016.09